Aérodrome :
LOGIN :

S'inscrire | Disclaimer

   EN    FR    IT 

 










Légende :    VFR   VFR Marginal   IFR   IFR Intensif   IFR Très Intensif
Visi : 
Plafond : 
>= 8 km
>= 3000ft
5 à 8 km
1000 à 3000 ft
1500m à 5 km
500 à 1000 ft
800 à 1500m
200 à 500 ft
< 800m
< 200 ft
Symboles :   Orages  Brouillard  Fortes neiges  Fortes précipitations  Vent > 20 kt
SIGMETs :   Divers  Orages  Givrage  Turbulence  Onde Orograph.  Cendres Volcan.







- Altitude de l'aérodrome : 290 ft
- Code IATA : LAI
- Voir les cartes d'approche


LFRO - Lannion

DERNIER METAR :
  • 160730Z AUTO 07003KT 030V100 0900 R29/1200N FG VV/// 11/11 Q1021 TEMPO 3000 BR OVC006

METARs EXPIRÉS :
  • 160700Z AUTO 09003KT 060V120 2000 BR OVC002 11/11 Q1021 TEMPO 3000 BR OVC006
  • 160630Z AUTO VRB03KT 3700 BR OVC003 11/11 Q1020 TEMPO OVC006
  • 160600Z AUTO 09004KT 4600 BR OVC007 11/11 Q1020 NOSIG
  • 160530Z AUTO 11006KT 5000 BR OVC009 11/11 Q1020 NOSIG
  • 160500Z AUTO 12006KT 4900 BR OVC010 11/10 Q1020

TAF TAF LFRO
Valide du 16 à 06h jusqu'au 17 à 06h UTC


160500Z 1606/1706 15005KT 9999 OVC012
PROB30
TEMPO 1606/1610 3000 BR OVC006
BECMG 1610/1613 SCT015
TEMPO 1700/1706 4000 BR BKN008
Pas de NOTAMs connus pour ce terrain.



MET'MAP, la Météo Aéronautique d'un coup d'oeil ! - Copyright ORBIFLY Décembre 2007 - Disclaimer

ORBIFLY MET'MAP TEAM :

Programmation & Développement : Alexandra Zaïnal
Conception & Développement : Baudouin d'Aumeries
Co-Programmation & Développement : Marc-Olivier Méhu
Soutien technique & logistique : Manuel Goepfert

Contact : metmap@orbifly.com




SOURCES & CREDITS :

   NOAA